createdAt,value
2022-10-17T00:00:31.275Z,98956.75
2022-10-17T00:01:32.843Z,98951.47
2022-10-17T00:02:34.310Z,98952.19
2022-10-17T00:03:37.745Z,98956.72
2022-10-17T00:04:39.295Z,98957.09
2022-10-17T00:05:42.936Z,98958.19
2022-10-17T00:06:44.415Z,98959.00
2022-10-17T00:07:45.844Z,98963.16
2022-10-17T00:08:47.577Z,98969.94
2022-10-17T00:09:48.954Z,98957.44
2022-10-17T00:10:59.219Z,98963.50
2022-10-17T00:12:02.558Z,98965.78
2022-10-17T00:13:04.563Z,98966.13
2022-10-17T00:14:06.550Z,98961.94
2022-10-17T00:15:08.994Z,98961.94
2022-10-17T00:16:10.542Z,98957.75
2022-10-17T00:17:11.963Z,98966.84
2022-10-17T00:18:13.382Z,98970.63
2022-10-17T00:19:15.116Z,98972.47
2022-10-17T00:20:17.692Z,98972.84
2022-10-17T00:21:20.539Z,98969.78
2022-10-17T00:22:21.954Z,98968.63
2022-10-17T00:23:24.026Z,98973.56
2022-10-17T00:24:25.857Z,98972.03
2022-10-17T00:25:27.422Z,98974.31
2022-10-17T00:26:29.674Z,98967.50
2022-10-17T00:27:35.546Z,98972.81
2022-10-17T00:28:37.327Z,98976.59
2022-10-17T00:29:38.741Z,98976.94
2022-10-17T00:30:40.230Z,98973.94
2022-10-17T00:31:41.854Z,98979.25
2022-10-17T00:32:43.386Z,98977.34
2022-10-17T00:33:45.620Z,98972.38
2022-10-17T00:34:47.084Z,98975.81
2022-10-17T00:35:48.481Z,98980.00
2022-10-17T00:36:49.968Z,98981.47
2022-10-17T00:37:51.366Z,98978.47
2022-10-17T00:38:58.899Z,98973.84
2022-10-17T00:40:00.603Z,98968.53
2022-10-17T00:41:02.756Z,98971.94
2022-10-17T00:42:04.304Z,98980.22
2022-10-17T00:43:15.006Z,98973.75
2022-10-17T00:44:32.053Z,98978.31
2022-10-17T00:45:33.483Z,98968.41
2022-10-17T00:46:39.255Z,98975.97
2022-10-17T00:47:42.105Z,98973.66
2022-10-17T00:48:44.641Z,98977.06
2022-10-17T00:49:46.102Z,98974.78
2022-10-17T00:50:49.577Z,98973.66
2022-10-17T00:51:53.969Z,98972.13
2022-10-17T00:52:58.849Z,98972.50
2022-10-17T00:54:01.768Z,98969.47
2022-10-17T00:55:09.288Z,98976.31
2022-10-17T00:56:11.469Z,98972.13
2022-10-17T00:57:13.950Z,98973.31
2022-10-17T00:58:16.825Z,98975.56
2022-10-17T00:59:20.120Z,98976.25
2022-10-17T01:00:22.255Z,98973.97
2022-10-17T01:01:23.812Z,98971.31
2022-10-17T01:02:25.583Z,98977.81
2022-10-17T01:03:27.546Z,98965.66
2022-10-17T01:04:28.991Z,98973.22
2022-10-17T01:05:30.733Z,98969.81
2022-10-17T01:06:32.729Z,98973.22
2022-10-17T01:07:37.212Z,98972.44
2022-10-17T01:08:39.467Z,98975.09
2022-10-17T01:09:43.140Z,98971.69
2022-10-17T01:10:44.493Z,98969.38
2022-10-17T01:11:53.862Z,98981.13
2022-10-17T01:13:08.398Z,98972.81
2022-10-17T01:14:25.149Z,98979.19
2022-10-17T01:15:53.980Z,98983.31
2022-10-17T01:17:01.213Z,98977.66
2022-10-17T01:18:18.881Z,98980.63
2022-10-17T01:19:31.569Z,98982.50
2022-10-17T01:20:59.965Z,98981.34
2022-10-17T01:22:21.839Z,98976.03
2022-10-17T01:23:30.681Z,98981.69
2022-10-17T01:24:57.418Z,98971.84
2022-10-17T01:26:12.530Z,98982.81
2022-10-17T01:27:13.840Z,98979.00
2022-10-17T01:28:21.812Z,98980.47
2022-10-17T01:30:03.730Z,98976.31
2022-10-17T01:31:10.939Z,98980.09
2022-10-17T01:32:19.902Z,98983.06
2022-10-17T01:33:31.013Z,98987.59
2022-10-17T01:34:39.320Z,98981.19
2022-10-17T01:35:52.609Z,98980.84
2022-10-17T01:37:03.664Z,98978.94
2022-10-17T01:38:10.739Z,98981.59
2022-10-17T01:39:28.096Z,98975.13
2022-10-17T01:40:42.169Z,98980.38
2022-10-17T01:42:06.996Z,98974.28
2022-10-17T01:43:15.063Z,98979.56
2022-10-17T01:44:41.138Z,98979.91
2022-10-17T01:45:52.808Z,98982.22
2022-10-17T01:47:03.713Z,98984.44
2022-10-17T01:48:09.272Z,98974.22
2022-10-17T01:49:14.504Z,98974.59
2022-10-17T01:50:20.232Z,98967.78
2022-10-17T01:51:28.395Z,98976.50
2022-10-17T01:52:45.353Z,98971.63
2022-10-17T01:54:10.282Z,98970.50
2022-10-17T01:55:18.482Z,98973.91
2022-10-17T01:56:22.822Z,98970.50
2022-10-17T01:57:31.019Z,98975.78
2022-10-17T01:58:40.689Z,98977.31
2022-10-17T01:59:47.608Z,98974.66
2022-10-17T02:00:50.422Z,98973.91
2022-10-17T02:01:55.195Z,98976.19
2022-10-17T02:03:00.517Z,98967.41
2022-10-17T02:04:04.321Z,98966.25
2022-10-17T02:05:06.507Z,98971.94
2022-10-17T02:06:08.005Z,98973.03
2022-10-17T02:07:11.920Z,98967.72
2022-10-17T02:08:14.550Z,98972.25
2022-10-17T02:09:21.995Z,98966.97
2022-10-17T02:10:37.159Z,98968.03
2022-10-17T02:11:38.494Z,98961.91
2022-10-17T02:12:55.313Z,98959.63
2022-10-17T02:14:24.930Z,98963.03
2022-10-17T02:15:38.825Z,98963.78
2022-10-17T02:17:17.449Z,98960.75
2022-10-17T02:18:27.822Z,98965.66
2022-10-17T02:19:54.607Z,98961.13
2022-10-17T02:21:18.824Z,98955.34
2022-10-17T02:22:41.871Z,98957.59
2022-10-17T02:24:00.270Z,98967.06
2022-10-17T02:25:15.477Z,98967.41
2022-10-17T02:26:30.470Z,98957.19
2022-10-17T02:27:44.309Z,98955.28
2022-10-17T02:29:04.943Z,98964.00
2022-10-17T02:30:16.268Z,98957.94
2022-10-17T02:31:22.783Z,98962.13
2022-10-17T02:32:46.603Z,98957.97
2022-10-17T02:33:59.757Z,98951.09
2022-10-17T02:35:03.802Z,98954.44
2022-10-17T02:36:11.879Z,98951.78
2022-10-17T02:37:15.949Z,98958.66
2022-10-17T02:38:18.743Z,98953.69
2022-10-17T02:39:23.699Z,98959.84
2022-10-17T02:40:27.816Z,98958.28
2022-10-17T02:41:30.242Z,98961.28
2022-10-17T02:42:33.120Z,98961.69
2022-10-17T02:43:36.262Z,98960.16
2022-10-17T02:44:40.237Z,98963.59
2022-10-17T02:45:41.863Z,98955.63
2022-10-17T02:46:47.813Z,98961.69
2022-10-17T02:48:02.291Z,98975.38
2022-10-17T02:49:24.786Z,98968.53
2022-10-17T02:50:53.723Z,98973.09
2022-10-17T02:52:03.730Z,98975.72
2022-10-17T02:53:11.895Z,98970.78
2022-10-17T02:54:26.436Z,98982.81
2022-10-17T02:55:39.909Z,98970.69
2022-10-17T02:56:52.972Z,98974.44
2022-10-17T02:58:08.805Z,98977.84
2022-10-17T02:59:15.697Z,98975.56
2022-10-17T03:00:18.980Z,98976.69
2022-10-17T03:01:21.349Z,98972.16
2022-10-17T03:02:22.859Z,98980.50
2022-10-17T03:03:30.306Z,98976.69
2022-10-17T03:04:32.337Z,98971.81
2022-10-17T03:05:33.771Z,98986.94
2022-10-17T03:06:35.222Z,98976.69
2022-10-17T03:07:36.681Z,98975.56
2022-10-17T03:09:39.832Z,98982.63
2022-10-17T03:10:41.348Z,98983.34
2022-10-17T03:11:42.774Z,98977.63
2022-10-17T03:12:44.566Z,98981.47
2022-10-17T03:13:46.005Z,98981.47
2022-10-17T03:14:47.444Z,98989.41
2022-10-17T03:15:48.920Z,98982.94
2022-10-17T03:16:50.355Z,98983.72
2022-10-17T03:17:52.063Z,98989.34
2022-10-17T03:18:53.545Z,98996.53
2022-10-17T03:19:55.323Z,98988.19
2022-10-17T03:20:56.741Z,98994.25
2022-10-17T03:21:58.183Z,98991.59
2022-10-17T03:23:00.001Z,98995.38
2022-10-17T03:24:01.447Z,98999.88
2022-10-17T03:25:03.326Z,98994.59
2022-10-17T03:26:06.000Z,98999.88
2022-10-17T03:27:07.448Z,99001.00
2022-10-17T03:28:09.629Z,99003.72
2022-10-17T03:29:11.446Z,98998.78
2022-10-17T03:30:13.048Z,99002.53
2022-10-17T03:31:16.634Z,99005.16
2022-10-17T03:32:18.349Z,99004.00
2022-10-17T03:33:19.755Z,98999.84
2022-10-17T03:34:21.662Z,99004.72
2022-10-17T03:35:23.082Z,99007.34
2022-10-17T03:36:24.502Z,99014.53
2022-10-17T03:37:26.071Z,99008.06
2022-10-17T03:38:27.644Z,99011.50
2022-10-17T03:39:29.383Z,99013.38
2022-10-17T03:40:30.800Z,99014.13
2022-10-17T03:41:32.210Z,99014.81
2022-10-17T03:42:33.681Z,99018.59
2022-10-17T03:43:35.288Z,99010.66
2022-10-17T03:44:37.036Z,99016.34
2022-10-17T03:45:38.450Z,99011.13
2022-10-17T03:46:39.989Z,99014.13
2022-10-17T03:47:41.419Z,99017.47
2022-10-17T03:48:42.846Z,99012.53
2022-10-17T03:49:44.634Z,99015.94
2022-10-17T03:50:46.083Z,99018.59
2022-10-17T03:51:47.478Z,99014.75
2022-10-17T03:52:49.558Z,99018.13
2022-10-17T03:53:51.036Z,99020.00
2022-10-17T03:54:52.823Z,99015.81
2022-10-17T03:55:54.467Z,99023.34
2022-10-17T03:58:02.232Z,99023.75
2022-10-17T03:59:04.021Z,99026.75
2022-10-17T04:00:06.779Z,99023.00
2022-10-17T04:01:10.934Z,99023.34
2022-10-17T04:02:12.455Z,99026.69
2022-10-17T04:03:17.154Z,99031.22
2022-10-17T04:04:19.302Z,99026.28
2022-10-17T04:05:20.746Z,99033.47
2022-10-17T04:06:22.800Z,99025.84
2022-10-17T04:07:24.252Z,99025.44
2022-10-17T04:08:26.511Z,99028.78
2022-10-17T04:09:27.909Z,99025.38
2022-10-17T04:10:29.660Z,99028.03
2022-10-17T04:11:31.154Z,99029.53
2022-10-17T04:12:32.666Z,99026.91
2022-10-17T04:13:35.026Z,99033.25
2022-10-17T04:14:37.911Z,99032.47
2022-10-17T04:15:39.256Z,99030.97
2022-10-17T04:16:40.605Z,99032.84
2022-10-17T04:17:41.910Z,99033.97
2022-10-17T04:18:43.664Z,99035.06
2022-10-17T04:19:45.418Z,99032.00
2022-10-17T04:20:46.836Z,99035.41
2022-10-17T04:21:48.524Z,99034.66
2022-10-17T04:22:49.950Z,99037.28
2022-10-17T04:23:56.224Z,99039.63
2022-10-17T04:24:57.987Z,99039.94
2022-10-17T04:26:00.794Z,99033.13
2022-10-17T04:27:02.291Z,99040.66
2022-10-17T04:28:03.865Z,99036.13
2022-10-17T04:29:05.282Z,99041.41
2022-10-17T04:30:07.676Z,99039.53
2022-10-17T04:31:12.520Z,99038.41
2022-10-17T04:32:14.157Z,99038.81
2022-10-17T04:33:15.556Z,99033.53
2022-10-17T04:34:17.291Z,99043.34
2022-10-17T04:35:18.769Z,99036.53
2022-10-17T04:36:20.765Z,99044.13
2022-10-17T04:37:22.269Z,99047.88
2022-10-17T04:38:27.692Z,99047.56
2022-10-17T04:39:30.534Z,99044.13
2022-10-17T04:40:32.029Z,99047.19
2022-10-17T04:41:33.456Z,99043.44
2022-10-17T04:42:34.906Z,99035.13
2022-10-17T04:43:38.001Z,99038.53
2022-10-17T04:44:39.814Z,99036.25
2022-10-17T04:45:41.242Z,99039.31
2022-10-17T04:46:42.682Z,99035.13
2022-10-17T04:47:44.162Z,99040.09
2022-10-17T04:48:45.624Z,99047.28
2022-10-17T04:49:47.457Z,99041.19
2022-10-17T04:51:00.559Z,99044.19
2022-10-17T04:52:02.000Z,99040.69
2022-10-17T04:53:03.482Z,99046.34
2022-10-17T04:54:05.594Z,99043.72
2022-10-17T04:55:07.549Z,99047.13
2022-10-17T04:56:14.226Z,99042.19
2022-10-17T04:57:15.728Z,99047.03
2022-10-17T04:58:17.558Z,99048.16
2022-10-17T04:59:19.369Z,99051.50
2022-10-17T05:00:20.796Z,99046.19
2022-10-17T05:01:24.026Z,99044.28
2022-10-17T05:02:25.571Z,99051.84
2022-10-17T05:03:27.323Z,99051.44
2022-10-17T05:04:28.788Z,99039.66
2022-10-17T05:05:30.991Z,99049.91
2022-10-17T05:06:33.602Z,99047.59
2022-10-17T05:07:35.069Z,99049.84
2022-10-17T05:08:37.128Z,99049.84
2022-10-17T05:09:38.545Z,99044.19
2022-10-17T05:10:42.123Z,99050.59
2022-10-17T05:11:43.640Z,99047.97
2022-10-17T05:12:47.461Z,99050.16
2022-10-17T05:13:54.332Z,99051.66
2022-10-17T05:14:56.121Z,99047.03
2022-10-17T05:16:01.698Z,99045.44
2022-10-17T05:17:03.190Z,99051.06
2022-10-17T05:18:05.770Z,99048.44
2022-10-17T05:19:07.589Z,99046.13
2022-10-17T05:20:09.593Z,99049.13
2022-10-17T05:21:11.034Z,99046.81
2022-10-17T05:22:12.521Z,99051.44
2022-10-17T05:23:13.952Z,99053.63
2022-10-17T05:24:15.870Z,99045.72
2022-10-17T05:25:17.349Z,99049.56
2022-10-17T05:26:18.944Z,99058.25
2022-10-17T05:27:20.366Z,99059.78
2022-10-17T05:28:22.711Z,99057.13
2022-10-17T05:29:24.199Z,99059.09
2022-10-17T05:30:25.740Z,99055.59
2022-10-17T05:31:27.147Z,99059.38
2022-10-17T05:32:28.792Z,99058.59
2022-10-17T05:33:30.480Z,99062.06
2022-10-17T05:34:34.644Z,99065.91
2022-10-17T05:35:36.112Z,99065.16
2022-10-17T05:36:37.538Z,99066.59
2022-10-17T05:37:39.100Z,99067.72
2022-10-17T05:38:40.579Z,99061.25
2022-10-17T05:39:42.356Z,99068.06
2022-10-17T05:40:43.801Z,99069.59
2022-10-17T05:41:46.412Z,99071.56
2022-10-17T05:42:49.360Z,99068.47
2022-10-17T05:43:51.150Z,99069.94
2022-10-17T05:44:52.628Z,99066.09
2022-10-17T05:45:54.803Z,99065.75
2022-10-17T05:46:56.235Z,99074.88
2022-10-17T05:47:57.697Z,99065.75
2022-10-17T05:48:59.659Z,99071.03
2022-10-17T05:50:01.099Z,99070.63
2022-10-17T05:51:06.225Z,99076.28
2022-10-17T05:52:07.872Z,99076.28
2022-10-17T05:53:09.426Z,99077.03
2022-10-17T05:54:11.223Z,99066.47
2022-10-17T05:55:16.081Z,99071.03
2022-10-17T05:56:20.375Z,99073.34
2022-10-17T05:57:25.376Z,99070.34
2022-10-17T05:59:49.247Z,99060.53
2022-10-17T06:00:50.690Z,99071.13
2022-10-17T06:01:53.439Z,99073.41
2022-10-17T06:02:54.931Z,99072.25
2022-10-17T06:03:57.106Z,99083.50
2022-10-17T06:04:58.668Z,99083.94
2022-10-17T06:06:11.740Z,99081.63
2022-10-17T06:07:13.344Z,99080.84
2022-10-17T06:08:14.777Z,99078.97
2022-10-17T06:09:16.343Z,99088.47
2022-10-17T06:10:18.679Z,99088.47
2022-10-17T06:11:20.161Z,99086.22
2022-10-17T06:12:21.594Z,99096.88
2022-10-17T06:13:23.042Z,99095.00
2022-10-17T06:14:24.520Z,99096.19
2022-10-17T06:15:25.976Z,99095.78
2022-10-17T06:16:27.477Z,99097.31
2022-10-17T06:17:30.302Z,99103.78
2022-10-17T06:18:31.796Z,99100.38
2022-10-17T06:19:33.318Z,99101.91
2022-10-17T06:20:34.850Z,99101.47
2022-10-17T06:21:37.824Z,99098.41
2022-10-17T06:22:39.201Z,99104.47
2022-10-17T06:23:41.006Z,99102.59
2022-10-17T06:24:42.661Z,99104.13
2022-10-17T06:25:44.515Z,99105.69
2022-10-17T06:26:47.585Z,99103.44
2022-10-17T06:27:49.063Z,99109.56
2022-10-17T06:28:50.640Z,99105.13
2022-10-17T06:29:52.178Z,99101.44
2022-10-17T06:30:53.609Z,99106.81
2022-10-17T06:31:55.153Z,99104.97
2022-10-17T06:32:56.806Z,99107.72
2022-10-17T06:33:58.559Z,99112.66
2022-10-17T06:35:00.133Z,99108.97
2022-10-17T06:36:01.971Z,99107.50
2022-10-17T06:37:03.407Z,99106.81
2022-10-17T06:38:05.067Z,99112.16
2022-10-17T06:39:06.852Z,99103.53
2022-10-17T06:40:10.386Z,99114.19
2022-10-17T06:41:18.262Z,99119.13
2022-10-17T06:42:19.682Z,99113.50
2022-10-17T06:43:25.570Z,99117.69
2022-10-17T06:44:32.109Z,99118.47
2022-10-17T06:45:33.581Z,99119.97
2022-10-17T06:46:35.068Z,99123.03
2022-10-17T06:47:37.290Z,99123.47
2022-10-17T06:48:39.249Z,99126.53
2022-10-17T06:49:40.743Z,99130.00
2022-10-17T06:50:42.206Z,99133.41
2022-10-17T06:51:43.676Z,99130.09
2022-10-17T06:52:45.160Z,99136.53
2022-10-17T06:53:47.200Z,99130.19
2022-10-17T06:54:48.762Z,99145.81
2022-10-17T06:55:55.237Z,99136.81
2022-10-17T06:56:57.010Z,99143.34
2022-10-17T06:57:58.579Z,99146.38
2022-10-17T06:59:00.334Z,99145.34
2022-10-17T07:00:02.239Z,99142.00
2022-10-17T07:02:15.766Z,99141.31
2022-10-17T07:03:17.516Z,99145.88
2022-10-17T07:04:19.019Z,99142.91
2022-10-17T07:05:20.532Z,99147.91
2022-10-17T07:06:24.378Z,99145.66
2022-10-17T07:07:25.940Z,99146.50
2022-10-17T07:08:28.197Z,99148.44
2022-10-17T07:09:33.030Z,99158.69
2022-10-17T07:10:38.257Z,99158.31
2022-10-17T07:11:40.232Z,99155.34
2022-10-17T07:12:42.279Z,99156.50
2022-10-17T07:13:44.155Z,99158.09
2022-10-17T07:14:47.307Z,99161.94
2022-10-17T07:15:48.935Z,99157.81
2022-10-17T07:16:50.504Z,99160.88
2022-10-17T07:17:51.946Z,99159.03
2022-10-17T07:18:54.394Z,99164.06
2022-10-17T07:19:55.821Z,99160.31
2022-10-17T07:20:57.276Z,99158.88
2022-10-17T07:21:58.704Z,99163.50
2022-10-17T07:23:00.649Z,99162.09
2022-10-17T07:24:02.152Z,99157.25
2022-10-17T07:25:06.594Z,99143.28
2022-10-17T07:26:10.899Z,99149.38
2022-10-17T07:27:13.674Z,99145.66
2022-10-17T07:28:16.095Z,99146.84
2022-10-17T07:29:17.635Z,99150.31
2022-10-17T07:30:19.821Z,99159.44
2022-10-17T07:31:23.004Z,99155.31
2022-10-17T07:32:24.437Z,99154.59
2022-10-17T07:33:26.179Z,99154.66
2022-10-17T07:34:30.705Z,99162.28
2022-10-17T07:35:32.363Z,99168.78
2022-10-17T07:36:33.802Z,99160.13
2022-10-17T07:37:35.852Z,99163.97
2022-10-17T07:38:38.167Z,99164.03
2022-10-17T07:39:40.059Z,99165.94
2022-10-17T07:40:41.459Z,99166.00
2022-10-17T07:41:42.929Z,99166.81
2022-10-17T07:42:44.662Z,99158.53
2022-10-17T07:43:46.542Z,99161.28
2022-10-17T07:44:48.091Z,99154.53
2022-10-17T07:45:49.581Z,99152.75
2022-10-17T07:46:51.039Z,99159.03
2022-10-17T07:47:56.341Z,99158.41
2022-10-17T07:48:57.819Z,99167.41
2022-10-17T07:49:59.239Z,99173.50
2022-10-17T07:51:08.529Z,99182.22
2022-10-17T07:52:13.972Z,99181.88
2022-10-17T07:53:15.894Z,99181.75
2022-10-17T07:54:17.344Z,99191.75
2022-10-17T07:55:18.771Z,99182.72
2022-10-17T07:56:24.527Z,99185.91
2022-10-17T07:57:26.259Z,99194.06
2022-10-17T07:58:28.769Z,99179.97
2022-10-17T07:59:30.255Z,99179.25
2022-10-17T08:00:31.727Z,99183.81
2022-10-17T08:01:33.178Z,99178.88
2022-10-17T08:02:34.970Z,99179.59
2022-10-17T08:03:36.743Z,99176.50
2022-10-17T08:04:39.103Z,99175.75
2022-10-17T08:05:40.637Z,99166.56
2022-10-17T08:06:42.114Z,99168.81
2022-10-17T08:07:43.933Z,99168.41
2022-10-17T08:08:45.603Z,99165.72
2022-10-17T08:09:47.394Z,99166.47
2022-10-17T08:10:48.816Z,99164.19
2022-10-17T08:11:50.240Z,99167.94
2022-10-17T08:12:51.692Z,99169.88
2022-10-17T08:13:53.366Z,99165.66
2022-10-17T08:14:54.797Z,99173.66
2022-10-17T08:16:02.460Z,99173.66
2022-10-17T08:17:04.508Z,99174.03
2022-10-17T08:18:05.939Z,99171.38
2022-10-17T08:20:15.770Z,99177.09
2022-10-17T08:21:17.248Z,99172.53
2022-10-17T08:22:21.422Z,99174.44
2022-10-17T08:23:24.620Z,99176.75
2022-10-17T08:24:26.139Z,99175.22
2022-10-17T08:25:27.651Z,99178.28
2022-10-17T08:26:30.621Z,99175.25
2022-10-17T08:27:36.184Z,99174.53
2022-10-17T08:28:39.383Z,99176.84
2022-10-17T08:29:41.255Z,99181.81
2022-10-17T08:30:42.706Z,99176.88
2022-10-17T08:31:47.722Z,99173.47
2022-10-17T08:32:49.861Z,99179.94
2022-10-17T08:33:51.364Z,99180.34
2022-10-17T08:34:53.765Z,99190.69
2022-10-17T08:35:55.347Z,99183.06
2022-10-17T08:36:56.863Z,99184.53
2022-10-17T08:38:01.762Z,99182.13
2022-10-17T08:39:03.812Z,99178.19
2022-10-17T08:40:06.209Z,99175.06
2022-10-17T08:41:15.337Z,99178.84
2022-10-17T08:42:38.847Z,99171.69
2022-10-17T08:43:51.827Z,99173.22
2022-10-17T08:45:17.682Z,99169.75
2022-10-17T08:46:20.194Z,99168.09
2022-10-17T08:47:29.668Z,99165.72
2022-10-17T08:48:42.618Z,99169.47
2022-10-17T08:49:52.508Z,99170.38
2022-10-17T08:51:02.094Z,99166.53
2022-10-17T08:52:19.944Z,99168.53
2022-10-17T08:53:29.798Z,99166.69
2022-10-17T08:54:43.319Z,99171.41
2022-10-17T08:55:48.066Z,99168.25
2022-10-17T08:56:51.128Z,99166.59
2022-10-17T08:57:53.320Z,99171.66
2022-10-17T08:58:54.799Z,99170.19
2022-10-17T08:59:57.115Z,99168.47
2022-10-17T09:01:19.530Z,99169.28
2022-10-17T09:02:40.433Z,99167.72
2022-10-17T09:04:02.651Z,99164.25
2022-10-17T09:05:27.368Z,99157.53
2022-10-17T09:06:39.491Z,99170.00
2022-10-17T09:07:55.843Z,99166.16
2022-10-17T09:09:26.852Z,99162.63
2022-10-17T09:10:42.903Z,99161.16
2022-10-17T09:12:11.274Z,99166.94
2022-10-17T09:13:21.561Z,99170.78
2022-10-17T09:14:48.146Z,99165.09
2022-10-17T09:16:07.705Z,99168.53
2022-10-17T09:17:31.748Z,99163.59
2022-10-17T09:18:37.961Z,99166.66
2022-10-17T09:19:46.343Z,99163.59
2022-10-17T09:20:53.246Z,99160.88
2022-10-17T09:21:57.618Z,99162.03
2022-10-17T09:23:04.492Z,99158.13
2022-10-17T09:24:16.118Z,99160.31
2022-10-17T09:25:20.129Z,99160.53
2022-10-17T09:26:22.368Z,99163.72
2022-10-17T09:27:28.158Z,99162.19
2022-10-17T09:28:34.458Z,99163.47
2022-10-17T09:29:40.163Z,99163.59
2022-10-17T09:30:47.446Z,99155.31
2022-10-17T09:33:28.656Z,99163.72
2022-10-17T09:34:37.849Z,99164.09
2022-10-17T09:35:41.864Z,99160.38
2022-10-17T09:36:44.069Z,99168.69
2022-10-17T09:37:46.212Z,99158.69
2022-10-17T09:38:59.766Z,99152.56
2022-10-17T09:40:01.613Z,99170.25
2022-10-17T09:41:04.699Z,99162.31
2022-10-17T09:42:14.487Z,99168.97
2022-10-17T09:43:16.314Z,99170.19
2022-10-17T09:44:33.479Z,99161.69
2022-10-17T09:45:47.084Z,99160.81
2022-10-17T09:47:09.504Z,99158.59
2022-10-17T09:48:25.781Z,99152.72
2022-10-17T09:49:33.237Z,99150.94
2022-10-17T09:50:35.109Z,99149.31
2022-10-17T09:51:38.692Z,99150.38
2022-10-17T09:52:48.593Z,99151.44
2022-10-17T09:53:56.799Z,99154.88
2022-10-17T09:55:20.190Z,99156.91
2022-10-17T09:56:21.668Z,99150.00
2022-10-17T09:57:23.329Z,99149.16
2022-10-17T09:58:40.512Z,99151.91
2022-10-17T09:59:57.177Z,99152.16
2022-10-17T10:01:19.636Z,99156.06
2022-10-17T10:02:26.386Z,99153.59
2022-10-17T10:03:27.997Z,99154.88
2022-10-17T10:04:30.313Z,99157.69
2022-10-17T10:05:31.993Z,99159.88
2022-10-17T10:06:33.771Z,99156.41
2022-10-17T10:07:38.978Z,99158.03
2022-10-17T10:08:54.962Z,99160.16
2022-10-17T10:09:57.897Z,99158.56
2022-10-17T10:11:05.319Z,99158.50
2022-10-17T10:12:17.902Z,99159.97
2022-10-17T10:13:22.908Z,99151.88
2022-10-17T10:14:35.822Z,99157.00
2022-10-17T10:15:41.116Z,99157.75
2022-10-17T10:16:44.944Z,99151.94
2022-10-17T10:17:46.475Z,99153.53
2022-10-17T10:18:50.869Z,99156.63
2022-10-17T10:19:53.076Z,99149.97
2022-10-17T10:21:20.010Z,99148.53
2022-10-17T10:22:25.761Z,99142.16
2022-10-17T10:23:27.499Z,99151.84
2022-10-17T10:24:31.099Z,99141.63
2022-10-17T10:25:33.900Z,99145.75
2022-10-17T10:26:48.774Z,99140.91
2022-10-17T10:27:50.516Z,99142.91
2022-10-17T10:29:20.461Z,99147.16
2022-10-17T10:30:30.364Z,99142.09
2022-10-17T10:31:39.864Z,99154.31
2022-10-17T10:32:47.242Z,99137.03
2022-10-17T10:33:50.934Z,99148.94
2022-10-17T10:35:00.892Z,99150.41
2022-10-17T10:36:07.712Z,99145.34
2022-10-17T10:37:40.152Z,99145.31
2022-10-17T10:38:43.363Z,99150.63
2022-10-17T10:39:54.887Z,99155.06
2022-10-17T10:41:01.810Z,99153.59
2022-10-17T10:42:06.024Z,99149.56
2022-10-17T10:43:09.136Z,99146.09
2022-10-17T10:44:15.453Z,99152.59
2022-10-17T10:45:43.190Z,99149.03
2022-10-17T10:46:42.692Z,99153.09
2022-10-17T10:48:24.301Z,99146.25
2022-10-17T10:49:32.589Z,99152.38
2022-10-17T10:50:45.192Z,99154.00
2022-10-17T10:51:49.500Z,99152.94
2022-10-17T10:53:09.215Z,99144.28
2022-10-17T10:54:17.940Z,99141.63
2022-10-17T10:55:19.400Z,99145.34
2022-10-17T10:56:26.681Z,99143.31
2022-10-17T10:57:33.606Z,99142.16
2022-10-17T10:58:37.801Z,99140.97
2022-10-17T10:59:46.577Z,99145.53
2022-10-17T11:00:49.979Z,99148.13
2022-10-17T11:02:00.854Z,99140.38
2022-10-17T11:03:45.920Z,99137.59
2022-10-17T11:05:16.166Z,99138.06
2022-10-17T11:06:23.857Z,99134.63
2022-10-17T11:07:37.992Z,99132.81
2022-10-17T11:08:59.262Z,99131.47
2022-10-17T11:10:15.423Z,99128.72
2022-10-17T11:11:39.299Z,99136.38
2022-10-17T11:12:55.010Z,99133.75
2022-10-17T11:14:05.368Z,99132.53
2022-10-17T11:15:31.761Z,99137.06
2022-10-17T11:16:42.068Z,99131.41
2022-10-17T11:18:10.963Z,99128.94
2022-10-17T11:19:24.382Z,99125.94
2022-10-17T11:20:51.614Z,99126.69
2022-10-17T11:22:01.800Z,99125.09
2022-10-17T11:23:28.340Z,99129.31
2022-10-17T11:24:40.066Z,99134.56
2022-10-17T11:25:42.152Z,99133.28
2022-10-17T11:27:01.237Z,99128.91
2022-10-17T11:28:10.524Z,99134.16
2022-10-17T11:29:13.262Z,99125.34
2022-10-17T11:30:16.020Z,99136.22
2022-10-17T11:31:18.456Z,99132.06
2022-10-17T11:32:31.433Z,99127.09
2022-10-17T11:33:48.854Z,99128.25
2022-10-17T11:34:59.927Z,99134.06
2022-10-17T11:36:07.134Z,99125.53
2022-10-17T11:37:18.697Z,99131.91
2022-10-17T11:38:34.930Z,99132.19
2022-10-17T11:39:49.773Z,99130.19
2022-10-17T11:40:55.212Z,99129.31
2022-10-17T11:42:04.279Z,99130.00
2022-10-17T11:43:14.351Z,99133.41
2022-10-17T11:44:38.367Z,99126.19
2022-10-17T11:45:44.566Z,99129.94
2022-10-17T11:46:51.172Z,99128.72
2022-10-17T11:47:59.857Z,99134.56
2022-10-17T11:49:20.591Z,99133.44
2022-10-17T11:52:03.137Z,99139.19
2022-10-17T11:53:27.629Z,99137.13
2022-10-17T11:54:46.100Z,99127.81
2022-10-17T11:55:48.237Z,99128.66
2022-10-17T11:57:10.717Z,99131.75
2022-10-17T11:58:48.199Z,99132.09
2022-10-17T12:00:18.600Z,99133.44
2022-10-17T12:01:43.101Z,99126.84
2022-10-17T12:02:58.233Z,99132.22
2022-10-17T12:04:02.681Z,99128.25
2022-10-17T12:05:17.488Z,99137.72
2022-10-17T12:06:35.244Z,99127.31
2022-10-17T12:07:49.333Z,99128.06
2022-10-17T12:08:58.963Z,99125.13
2022-10-17T12:10:26.242Z,99125.69
2022-10-17T12:11:28.251Z,99129.13
2022-10-17T12:12:33.153Z,99126.72
2022-10-17T12:13:36.175Z,99135.69
2022-10-17T12:14:39.448Z,99126.75
2022-10-17T12:15:44.699Z,99131.31
2022-10-17T12:16:48.070Z,99126.31
2022-10-17T12:18:03.958Z,99128.44
2022-10-17T12:19:21.379Z,99125.97
2022-10-17T12:20:25.841Z,99128.00
2022-10-17T12:21:31.301Z,99130.63
2022-10-17T12:22:33.768Z,99121.28
2022-10-17T12:23:38.609Z,99122.56
2022-10-17T12:24:45.628Z,99123.44
2022-10-17T12:26:01.129Z,99125.75
2022-10-17T12:27:46.040Z,99125.97
2022-10-17T12:28:48.264Z,99132.16
2022-10-17T12:29:50.777Z,99127.25
2022-10-17T12:31:02.155Z,99123.66
2022-10-17T12:32:12.316Z,99121.50
2022-10-17T12:33:23.540Z,99118.00
2022-10-17T12:34:25.103Z,99125.56
2022-10-17T12:35:28.031Z,99122.72
2022-10-17T12:36:29.438Z,99113.78
2022-10-17T12:37:43.411Z,99119.56
2022-10-17T12:38:49.903Z,99112.56
2022-10-17T12:39:51.752Z,99108.63
2022-10-17T12:40:55.769Z,99105.81
2022-10-17T12:41:57.202Z,99105.81
2022-10-17T12:42:58.636Z,99106.84
2022-10-17T12:44:00.464Z,99099.72
2022-10-17T12:45:02.078Z,99099.78
2022-10-17T12:46:04.843Z,99098.25
2022-10-17T12:47:07.933Z,99093.34
2022-10-17T12:48:10.307Z,99093.34
2022-10-17T12:49:39.847Z,99096.53
2022-10-17T12:51:34.323Z,99098.75
2022-10-17T12:52:32.528Z,99098.53
2022-10-17T12:53:57.228Z,99090.09
2022-10-17T12:55:13.475Z,99090.09
2022-10-17T12:56:40.483Z,99089.00
2022-10-17T12:58:00.313Z,99092.34
2022-10-17T12:59:09.058Z,99092.75
2022-10-17T13:01:11.851Z,99099.00
2022-10-17T13:02:25.313Z,99089.41
2022-10-17T13:03:31.156Z,99085.44
2022-10-17T13:04:36.446Z,99087.56
2022-10-17T13:05:41.884Z,99088.06
2022-10-17T13:06:54.278Z,99084.00
2022-10-17T13:07:59.983Z,99088.41
2022-10-17T13:09:05.888Z,99084.88
2022-10-17T13:10:18.782Z,99084.56